sensor_id;sensor_type;location;lat;lon;timestamp;pressure;altitude;pressure_sealevel;temperature;humidity
17060;BME280;8646;49.716;9.266;2023-04-02T00:02:28;99394.47;;;11.32;82.74
17060;BME280;8646;49.716;9.266;2023-04-02T00:05:40;99400.78;;;11.33;82.89
17060;BME280;8646;49.716;9.266;2023-04-02T00:08:52;99405.09;;;11.35;83.45
17060;BME280;8646;49.716;9.266;2023-04-02T00:12:14;99406.34;;;11.30;83.20
17060;BME280;8646;49.716;9.266;2023-04-02T00:15:18;99406.44;;;11.28;83.61
17060;BME280;8646;49.716;9.266;2023-04-02T00:18:21;99408.97;;;11.31;83.54
17060;BME280;8646;49.716;9.266;2023-04-02T00:21:28;99418.78;;;11.34;83.42
17060;BME280;8646;49.716;9.266;2023-04-02T00:24:32;99414.09;;;11.36;83.34
17060;BME280;8646;49.716;9.266;2023-04-02T00:27:36;99417.69;;;11.36;83.29
17060;BME280;8646;49.716;9.266;2023-04-02T00:30:45;99423.22;;;11.35;83.35
17060;BME280;8646;49.716;9.266;2023-04-02T00:33:51;99427.66;;;11.36;83.65
17060;BME280;8646;49.716;9.266;2023-04-02T00:36:55;99424.41;;;11.45;83.40
17060;BME280;8646;49.716;9.266;2023-04-02T00:40:00;99425.81;;;11.36;83.49
17060;BME280;8646;49.716;9.266;2023-04-02T00:43:08;99432.09;;;11.37;83.59
17060;BME280;8646;49.716;9.266;2023-04-02T00:46:20;99437.53;;;11.37;83.85
17060;BME280;8646;49.716;9.266;2023-04-02T00:49:30;99436.78;;;11.19;84.33
17060;BME280;8646;49.716;9.266;2023-04-02T00:52:37;99439.47;;;11.19;84.54
17060;BME280;8646;49.716;9.266;2023-04-02T00:55:41;99442.91;;;11.23;84.49
17060;BME280;8646;49.716;9.266;2023-04-02T00:59:03;99443.84;;;11.22;84.57
17060;BME280;8646;49.716;9.266;2023-04-02T01:02:21;99448.41;;;11.21;84.69
17060;BME280;8646;49.716;9.266;2023-04-02T01:05:33;99445.78;;;11.20;84.51
17060;BME280;8646;49.716;9.266;2023-04-02T01:08:53;99453.13;;;11.18;85.04
17060;BME280;8646;49.716;9.266;2023-04-02T01:15:32;99451.47;;;11.15;85.35
17060;BME280;8646;49.716;9.266;2023-04-02T01:18:47;99462.38;;;11.14;85.10
17060;BME280;8646;49.716;9.266;2023-04-02T01:21:56;99463.34;;;11.13;85.79
17060;BME280;8646;49.716;9.266;2023-04-02T01:25:03;99462.47;;;11.12;85.97
17060;BME280;8646;49.716;9.266;2023-04-02T01:28:09;99467.00;;;11.12;85.88
17060;BME280;8646;49.716;9.266;2023-04-02T01:31:26;99471.47;;;11.13;86.05
17060;BME280;8646;49.716;9.266;2023-04-02T01:34:29;99463.13;;;11.01;86.08
17060;BME280;8646;49.716;9.266;2023-04-02T01:37:37;99476.00;;;11.12;86.34
17060;BME280;8646;49.716;9.266;2023-04-02T01:40:49;99477.75;;;11.13;87.03
17060;BME280;8646;49.716;9.266;2023-04-02T01:44:00;99482.66;;;11.06;87.44
17060;BME280;8646;49.716;9.266;2023-04-02T01:47:09;99488.44;;;11.00;87.64
17060;BME280;8646;49.716;9.266;2023-04-02T01:50:24;99496.06;;;10.94;87.43
17060;BME280;8646;49.716;9.266;2023-04-02T01:53:40;99499.78;;;10.91;87.73
17060;BME280;8646;49.716;9.266;2023-04-02T01:56:44;99508.16;;;10.87;87.74
17060;BME280;8646;49.716;9.266;2023-04-02T01:59:47;99509.22;;;10.84;88.23
17060;BME280;8646;49.716;9.266;2023-04-02T02:02:52;99514.28;;;10.90;88.21
17060;BME280;8646;49.716;9.266;2023-04-02T02:05:58;99505.44;;;10.87;88.31
17060;BME280;8646;49.716;9.266;2023-04-02T02:09:03;99517.06;;;10.89;88.67
17060;BME280;8646;49.716;9.266;2023-04-02T02:12:13;99511.50;;;10.76;89.03
17060;BME280;8646;49.716;9.266;2023-04-02T02:15:19;99521.53;;;10.74;89.26
17060;BME280;8646;49.716;9.266;2023-04-02T02:18:24;99525.97;;;10.75;88.99
17060;BME280;8646;49.716;9.266;2023-04-02T02:21:37;99520.66;;;10.74;89.03
17060;BME280;8646;49.716;9.266;2023-04-02T02:24:40;99536.81;;;10.75;89.55
17060;BME280;8646;49.716;9.266;2023-04-02T02:27:57;99532.78;;;10.66;89.70
17060;BME280;8646;49.716;9.266;2023-04-02T02:31:12;99542.13;;;10.61;89.63
17060;BME280;8646;49.716;9.266;2023-04-02T02:34:21;99544.81;;;10.61;90.05
17060;BME280;8646;49.716;9.266;2023-04-02T02:37:28;99540.16;;;10.63;89.83
17060;BME280;8646;49.716;9.266;2023-04-02T02:40:37;99547.19;;;10.67;89.56
17060;BME280;8646;49.716;9.266;2023-04-02T02:43:47;99546.22;;;10.68;89.31
17060;BME280;8646;49.716;9.266;2023-04-02T02:46:54;99549.72;;;10.70;89.46
17060;BME280;8646;49.716;9.266;2023-04-02T02:50:08;99560.19;;;10.76;89.65
17060;BME280;8646;49.716;9.266;2023-04-02T02:53:18;99565.09;;;10.85;90.30
17060;BME280;8646;49.716;9.266;2023-04-02T02:56:22;99544.31;;;10.70;91.37
17060;BME280;8646;49.716;9.266;2023-04-02T02:59:27;99566.81;;;10.70;91.51
17060;BME280;8646;49.716;9.266;2023-04-02T03:02:34;99576.13;;;10.65;91.83
17060;BME280;8646;49.716;9.266;2023-04-02T03:05:39;99581.91;;;10.59;92.29
17060;BME280;8646;49.716;9.266;2023-04-02T03:08:46;99571.31;;;10.54;92.72
17060;BME280;8646;49.716;9.266;2023-04-02T03:11:57;99579.53;;;10.53;93.02
17060;BME280;8646;49.716;9.266;2023-04-02T03:15:12;99581.59;;;10.48;93.39
17060;BME280;8646;49.716;9.266;2023-04-02T03:18:25;99587.19;;;10.45;93.08
17060;BME280;8646;49.716;9.266;2023-04-02T03:21:38;99594.16;;;10.49;93.04
17060;BME280;8646;49.716;9.266;2023-04-02T03:24:48;99589.97;;;10.43;93.45
17060;BME280;8646;49.716;9.266;2023-04-02T03:27:58;99594.66;;;10.40;93.16
17060;BME280;8646;49.716;9.266;2023-04-02T03:31:05;99595.38;;;10.43;92.88
17060;BME280;8646;49.716;9.266;2023-04-02T03:34:13;99594.34;;;10.46;92.74
17060;BME280;8646;49.716;9.266;2023-04-02T03:37:23;99611.28;;;10.49;92.99
17060;BME280;8646;49.716;9.266;2023-04-02T03:40:30;99610.56;;;10.46;92.79
17060;BME280;8646;49.716;9.266;2023-04-02T03:43:38;99606.88;;;10.47;93.01
17060;BME280;8646;49.716;9.266;2023-04-02T03:46:48;99609.44;;;10.50;93.13
17060;BME280;8646;49.716;9.266;2023-04-02T03:50:00;99613.91;;;10.51;92.92
17060;BME280;8646;49.716;9.266;2023-04-02T03:53:12;99627.28;;;10.54;93.02
17060;BME280;8646;49.716;9.266;2023-04-02T03:56:22;99627.09;;;10.57;93.15
17060;BME280;8646;49.716;9.266;2023-04-02T03:59:36;99627.00;;;10.58;92.78
17060;BME280;8646;49.716;9.266;2023-04-02T04:02:44;99634.09;;;10.61;93.12
17060;BME280;8646;49.716;9.266;2023-04-02T04:05:50;99636.31;;;10.70;92.84
17060;BME280;8646;49.716;9.266;2023-04-02T04:09:00;99644.91;;;10.61;92.75
17060;BME280;8646;49.716;9.266;2023-04-02T04:12:20;99650.16;;;10.64;93.14
17060;BME280;8646;49.716;9.266;2023-04-02T04:15:28;99658.59;;;10.58;93.00
17060;BME280;8646;49.716;9.266;2023-04-02T04:18:40;99661.31;;;10.58;93.13
17060;BME280;8646;49.716;9.266;2023-04-02T04:21:46;99653.91;;;10.61;92.70
17060;BME280;8646;49.716;9.266;2023-04-02T04:24:50;99663.69;;;10.64;93.02
17060;BME280;8646;49.716;9.266;2023-04-02T04:28:00;99669.09;;;10.64;92.60
17060;BME280;8646;49.716;9.266;2023-04-02T04:31:14;99671.72;;;10.65;92.66
17060;BME280;8646;49.716;9.266;2023-04-02T04:34:28;99675.44;;;10.63;92.53
17060;BME280;8646;49.716;9.266;2023-04-02T04:37:38;99668.13;;;10.65;92.75
17060;BME280;8646;49.716;9.266;2023-04-02T04:40:47;99675.38;;;10.64;92.46
17060;BME280;8646;49.716;9.266;2023-04-02T04:43:59;99684.91;;;10.71;92.37
17060;BME280;8646;49.716;9.266;2023-04-02T04:47:07;99689.97;;;10.62;92.65
17060;BME280;8646;49.716;9.266;2023-04-02T04:50:15;99693.63;;;10.61;92.75
17060;BME280;8646;49.716;9.266;2023-04-02T04:53:23;99707.44;;;10.55;92.67
17060;BME280;8646;49.716;9.266;2023-04-02T04:56:29;99702.22;;;10.52;92.74
17060;BME280;8646;49.716;9.266;2023-04-02T04:59:41;99703.97;;;10.53;92.75
17060;BME280;8646;49.716;9.266;2023-04-02T05:02:49;99698.84;;;10.47;92.75
17060;BME280;8646;49.716;9.266;2023-04-02T05:05:59;99719.31;;;10.52;92.83
17060;BME280;8646;49.716;9.266;2023-04-02T05:09:14;99720.50;;;10.47;92.78
17060;BME280;8646;49.716;9.266;2023-04-02T05:12:29;99723.19;;;10.47;92.73
17060;BME280;8646;49.716;9.266;2023-04-02T05:15:39;99727.19;;;10.40;92.54
17060;BME280;8646;49.716;9.266;2023-04-02T05:18:46;99745.81;;;10.46;92.62
17060;BME280;8646;49.716;9.266;2023-04-02T05:21:54;99746.66;;;10.46;93.12
17060;BME280;8646;49.716;9.266;2023-04-02T05:25:08;99752.81;;;10.50;92.85
17060;BME280;8646;49.716;9.266;2023-04-02T05:28:18;99757.91;;;10.56;92.66
17060;BME280;8646;49.716;9.266;2023-04-02T05:31:24;99761.25;;;10.61;93.09
17060;BME280;8646;49.716;9.266;2023-04-02T05:34:32;99768.72;;;10.56;93.28
17060;BME280;8646;49.716;9.266;2023-04-02T05:37:38;99766.97;;;10.55;93.46
17060;BME280;8646;49.716;9.266;2023-04-02T05:40:45;99777.97;;;10.52;93.47
17060;BME280;8646;49.716;9.266;2023-04-02T05:43:57;99778.59;;;10.57;93.51
17060;BME280;8646;49.716;9.266;2023-04-02T05:47:04;99786.38;;;10.63;93.29
17060;BME280;8646;49.716;9.266;2023-04-02T05:50:20;99791.50;;;10.69;92.88
17060;BME280;8646;49.716;9.266;2023-04-02T05:53:28;99786.66;;;10.76;93.28
17060;BME280;8646;49.716;9.266;2023-04-02T05:56:36;99790.78;;;10.83;92.63
17060;BME280;8646;49.716;9.266;2023-04-02T05:59:47;99803.13;;;10.88;92.52
17060;BME280;8646;49.716;9.266;2023-04-02T06:02:55;99808.38;;;10.91;92.68
17060;BME280;8646;49.716;9.266;2023-04-02T06:06:05;99804.47;;;10.97;92.49
17060;BME280;8646;49.716;9.266;2023-04-02T06:09:20;99801.28;;;11.06;92.13
17060;BME280;8646;49.716;9.266;2023-04-02T06:12:28;99809.19;;;11.11;92.20
17060;BME280;8646;49.716;9.266;2023-04-02T06:15:36;99816.66;;;11.05;92.54
17060;BME280;8646;49.716;9.266;2023-04-02T06:18:40;99814.19;;;11.01;92.60
17060;BME280;8646;49.716;9.266;2023-04-02T06:21:45;99827.00;;;11.15;92.44
17060;BME280;8646;49.716;9.266;2023-04-02T06:24:54;99835.25;;;11.29;92.12
17060;BME280;8646;49.716;9.266;2023-04-02T06:28:00;99832.72;;;11.43;91.56
17060;BME280;8646;49.716;9.266;2023-04-02T06:31:12;99832.44;;;11.47;91.73
17060;BME280;8646;49.716;9.266;2023-04-02T06:34:20;99834.47;;;11.60;91.51
17060;BME280;8646;49.716;9.266;2023-04-02T06:37:27;99842.91;;;11.71;90.99
17060;BME280;8646;49.716;9.266;2023-04-02T06:40:38;99845.06;;;11.81;90.91
17060;BME280;8646;49.716;9.266;2023-04-02T06:43:45;99835.78;;;11.85;90.76
17060;BME280;8646;49.716;9.266;2023-04-02T06:46:52;99854.72;;;12.03;90.84
17060;BME280;8646;49.716;9.266;2023-04-02T06:50:03;99855.94;;;12.13;90.41
17060;BME280;8646;49.716;9.266;2023-04-02T06:53:17;99860.88;;;12.22;90.19
17060;BME280;8646;49.716;9.266;2023-04-02T06:56:34;99866.66;;;12.32;89.80
17060;BME280;8646;49.716;9.266;2023-04-02T06:59:45;99884.13;;;12.42;89.65
17060;BME280;8646;49.716;9.266;2023-04-02T07:02:49;99881.78;;;12.51;88.91
17060;BME280;8646;49.716;9.266;2023-04-02T07:05:54;99877.66;;;12.60;88.45
17060;BME280;8646;49.716;9.266;2023-04-02T07:08:56;99889.53;;;12.73;88.19
17060;BME280;8646;49.716;9.266;2023-04-02T07:12:00;99894.09;;;12.88;87.91
17060;BME280;8646;49.716;9.266;2023-04-02T07:15:04;99888.81;;;13.01;87.86
17060;BME280;8646;49.716;9.266;2023-04-02T07:18:16;99898.06;;;13.13;87.58
17060;BME280;8646;49.716;9.266;2023-04-02T07:21:23;99899.28;;;13.23;86.47
17060;BME280;8646;49.716;9.266;2023-04-02T07:24:25;99908.41;;;13.22;85.85
17060;BME280;8646;49.716;9.266;2023-04-02T07:27:29;99911.41;;;13.17;85.35
17060;BME280;8646;49.716;9.266;2023-04-02T07:30:32;99914.53;;;13.10;84.96
17060;BME280;8646;49.716;9.266;2023-04-02T07:33:36;99924.28;;;12.98;84.30
17060;BME280;8646;49.716;9.266;2023-04-02T07:36:41;99929.28;;;12.90;84.35
17060;BME280;8646;49.716;9.266;2023-04-02T07:39:44;99936.84;;;12.85;84.01
17060;BME280;8646;49.716;9.266;2023-04-02T07:42:47;99938.94;;;12.80;84.32
17060;BME280;8646;49.716;9.266;2023-04-02T07:45:50;99937.00;;;12.82;83.86
17060;BME280;8646;49.716;9.266;2023-04-02T07:48:54;99944.19;;;12.83;83.72
17060;BME280;8646;49.716;9.266;2023-04-02T07:51:57;99945.06;;;12.83;82.48
17060;BME280;8646;49.716;9.266;2023-04-02T07:54:59;99942.88;;;12.74;82.61
17060;BME280;8646;49.716;9.266;2023-04-02T07:58:03;99955.25;;;12.80;83.38
17060;BME280;8646;49.716;9.266;2023-04-02T08:01:14;99956.63;;;12.87;83.81
17060;BME280;8646;49.716;9.266;2023-04-02T08:04:20;99967.13;;;12.93;83.13
17060;BME280;8646;49.716;9.266;2023-04-02T08:07:23;99972.19;;;12.99;82.88
17060;BME280;8646;49.716;9.266;2023-04-02T08:10:28;99971.88;;;13.05;81.62
17060;BME280;8646;49.716;9.266;2023-04-02T08:13:31;99976.44;;;13.05;81.02
17060;BME280;8646;49.716;9.266;2023-04-02T08:16:48;99995.31;;;13.06;80.99
17060;BME280;8646;49.716;9.266;2023-04-02T08:19:52;99992.88;;;12.39;82.47
17060;BME280;8646;49.716;9.266;2023-04-02T08:22:56;100032.31;;;11.42;86.67
17060;BME280;8646;49.716;9.266;2023-04-02T08:26:03;100049.53;;;10.68;91.06
17060;BME280;8646;49.716;9.266;2023-04-02T08:29:06;100065.41;;;10.18;93.71
17060;BME280;8646;49.716;9.266;2023-04-02T08:32:11;100081.03;;;9.89;95.96
17060;BME280;8646;49.716;9.266;2023-04-02T08:35:18;100097.91;;;9.74;97.56
17060;BME280;8646;49.716;9.266;2023-04-02T08:38:24;100099.34;;;9.63;97.88
17060;BME280;8646;49.716;9.266;2023-04-02T08:41:26;100111.34;;;9.55;98.80
17060;BME280;8646;49.716;9.266;2023-04-02T08:44:40;100110.22;;;9.61;98.82
17060;BME280;8646;49.716;9.266;2023-04-02T08:47:46;100122.16;;;9.55;99.20
17060;BME280;8646;49.716;9.266;2023-04-02T08:50:51;100122.44;;;9.70;98.79
17060;BME280;8646;49.716;9.266;2023-04-02T08:53:59;100128.13;;;9.64;98.28
17060;BME280;8646;49.716;9.266;2023-04-02T08:57:06;100137.78;;;9.69;99.05
17060;BME280;8646;49.716;9.266;2023-04-02T09:00:25;100142.56;;;9.63;97.80
17060;BME280;8646;49.716;9.266;2023-04-02T09:03:34;100147.03;;;9.64;98.34
17060;BME280;8646;49.716;9.266;2023-04-02T09:06:39;100158.41;;;9.72;97.67
17060;BME280;8646;49.716;9.266;2023-04-02T09:09:48;100154.00;;;9.69;97.18
17060;BME280;8646;49.716;9.266;2023-04-02T09:12:52;100163.91;;;9.69;96.48
17060;BME280;8646;49.716;9.266;2023-04-02T09:15:57;100160.44;;;9.65;97.32
17060;BME280;8646;49.716;9.266;2023-04-02T09:19:12;100170.97;;;9.73;96.21
17060;BME280;8646;49.716;9.266;2023-04-02T09:22:19;100176.53;;;9.68;95.80
17060;BME280;8646;49.716;9.266;2023-04-02T09:25:25;100183.16;;;9.39;96.50
17060;BME280;8646;49.716;9.266;2023-04-02T09:28:28;100190.75;;;9.51;96.97
17060;BME280;8646;49.716;9.266;2023-04-02T09:31:35;100199.47;;;9.36;97.88
17060;BME280;8646;49.716;9.266;2023-04-02T09:34:40;100200.53;;;9.32;98.54
17060;BME280;8646;49.716;9.266;2023-04-02T09:37:45;100213.75;;;9.62;97.29
17060;BME280;8646;49.716;9.266;2023-04-02T09:40:49;100207.53;;;9.60;95.20
17060;BME280;8646;49.716;9.266;2023-04-02T09:44:10;100222.16;;;9.76;95.31
17060;BME280;8646;49.716;9.266;2023-04-02T09:47:24;100232.03;;;9.77;95.77
17060;BME280;8646;49.716;9.266;2023-04-02T09:50:31;100229.44;;;9.74;97.53
17060;BME280;8646;49.716;9.266;2023-04-02T09:53:36;100228.75;;;10.12;95.09
17060;BME280;8646;49.716;9.266;2023-04-02T09:56:58;100227.25;;;10.27;92.12
17060;BME280;8646;49.716;9.266;2023-04-02T10:00:15;100239.84;;;10.28;90.85
17060;BME280;8646;49.716;9.266;2023-04-02T10:03:31;100246.94;;;10.09;91.11
17060;BME280;8646;49.716;9.266;2023-04-02T10:06:34;100251.19;;;10.14;90.46
17060;BME280;8646;49.716;9.266;2023-04-02T10:09:39;100265.88;;;9.87;93.88
17060;BME280;8646;49.716;9.266;2023-04-02T10:12:44;100264.28;;;10.03;92.78
17060;BME280;8646;49.716;9.266;2023-04-02T10:15:53;100262.75;;;10.40;90.26
17060;BME280;8646;49.716;9.266;2023-04-02T10:18:58;100266.84;;;10.50;88.72
17060;BME280;8646;49.716;9.266;2023-04-02T10:22:04;100271.50;;;10.46;88.60
17060;BME280;8646;49.716;9.266;2023-04-02T10:25:14;100279.03;;;10.60;90.14
17060;BME280;8646;49.716;9.266;2023-04-02T10:28:26;100270.50;;;11.09;85.82
17060;BME280;8646;49.716;9.266;2023-04-02T10:31:38;100283.28;;;11.06;84.74
17060;BME280;8646;49.716;9.266;2023-04-02T10:34:51;100291.88;;;10.95;83.74
17060;BME280;8646;49.716;9.266;2023-04-02T10:41:45;100288.38;;;10.93;85.90
17060;BME280;8646;49.716;9.266;2023-04-02T10:44:54;100310.81;;;10.95;85.79
17060;BME280;8646;49.716;9.266;2023-04-02T10:48:03;100298.75;;;11.23;79.12
17060;BME280;8646;49.716;9.266;2023-04-02T10:51:15;100307.34;;;10.93;79.69
17060;BME280;8646;49.716;9.266;2023-04-02T10:54:31;100319.34;;;10.66;80.90
17060;BME280;8646;49.716;9.266;2023-04-02T10:57:38;100323.06;;;10.63;79.61
17060;BME280;8646;49.716;9.266;2023-04-02T11:00:42;100328.31;;;10.46;80.69
17060;BME280;8646;49.716;9.266;2023-04-02T11:03:50;100337.63;;;10.39;80.76
17060;BME280;8646;49.716;9.266;2023-04-02T11:07:00;100336.28;;;10.29;81.04
17060;BME280;8646;49.716;9.266;2023-04-02T11:10:16;100354.69;;;10.19;80.98
17060;BME280;8646;49.716;9.266;2023-04-02T11:13:25;100358.56;;;10.12;81.82
17060;BME280;8646;49.716;9.266;2023-04-02T11:16:30;100363.91;;;9.90;84.01
17060;BME280;8646;49.716;9.266;2023-04-02T11:19:34;100368.34;;;10.15;81.92
17060;BME280;8646;49.716;9.266;2023-04-02T11:22:38;100356.47;;;10.20;79.66
17060;BME280;8646;49.716;9.266;2023-04-02T11:25:42;100363.03;;;10.13;79.42
17060;BME280;8646;49.716;9.266;2023-04-02T11:28:46;100370.66;;;10.25;79.97
17060;BME280;8646;49.716;9.266;2023-04-02T11:31:50;100384.75;;;10.10;82.12
17060;BME280;8646;49.716;9.266;2023-04-02T11:35:26;100382.25;;;10.51;78.58
17060;BME280;8646;49.716;9.266;2023-04-02T11:38:50;100386.63;;;10.75;76.58
17060;BME280;8646;49.716;9.266;2023-04-02T11:42:02;100394.56;;;10.58;77.97
17060;BME280;8646;49.716;9.266;2023-04-02T11:49:35;100393.22;;;10.90;74.89
17060;BME280;8646;49.716;9.266;2023-04-02T11:52:50;100398.50;;;10.71;75.44
17060;BME280;8646;49.716;9.266;2023-04-02T11:56:06;100406.34;;;10.57;74.98
17060;BME280;8646;49.716;9.266;2023-04-02T11:59:14;100413.56;;;10.35;76.50
17060;BME280;8646;49.716;9.266;2023-04-02T12:02:25;100419.34;;;10.25;77.07
17060;BME280;8646;49.716;9.266;2023-04-02T12:05:34;100424.94;;;10.21;76.07
17060;BME280;8646;49.716;9.266;2023-04-02T12:08:48;100432.44;;;10.13;76.30
17060;BME280;8646;49.716;9.266;2023-04-02T12:11:59;100448.28;;;9.99;77.08
17060;BME280;8646;49.716;9.266;2023-04-02T12:15:06;100444.38;;;10.07;75.62
17060;BME280;8646;49.716;9.266;2023-04-02T12:18:14;100447.72;;;10.14;74.67
17060;BME280;8646;49.716;9.266;2023-04-02T12:21:21;100452.25;;;10.13;74.76
17060;BME280;8646;49.716;9.266;2023-04-02T12:24:26;100461.91;;;9.97;75.45
17060;BME280;8646;49.716;9.266;2023-04-02T12:27:31;100459.91;;;10.02;75.31
17060;BME280;8646;49.716;9.266;2023-04-02T12:30:39;100464.69;;;10.19;73.66
17060;BME280;8646;49.716;9.266;2023-04-02T12:33:43;100470.38;;;10.35;72.84
17060;BME280;8646;49.716;9.266;2023-04-02T12:36:56;100468.97;;;10.24;73.63
17060;BME280;8646;49.716;9.266;2023-04-02T12:40:15;100490.75;;;10.21;75.09
17060;BME280;8646;49.716;9.266;2023-04-02T12:43:26;100484.38;;;10.46;72.50
17060;BME280;8646;49.716;9.266;2023-04-02T12:46:31;100500.03;;;10.38;72.55
17060;BME280;8646;49.716;9.266;2023-04-02T12:49:36;100483.06;;;10.09;72.07
17060;BME280;8646;49.716;9.266;2023-04-02T12:52:45;100499.16;;;10.12;73.57
17060;BME280;8646;49.716;9.266;2023-04-02T12:55:50;100502.59;;;10.17;74.05
17060;BME280;8646;49.716;9.266;2023-04-02T12:58:54;100506.44;;;10.35;72.90
17060;BME280;8646;49.716;9.266;2023-04-02T13:01:59;100494.38;;;10.44;73.89
17060;BME280;8646;49.716;9.266;2023-04-02T13:05:03;100494.22;;;10.47;72.63
17060;BME280;8646;49.716;9.266;2023-04-02T13:08:15;100504.16;;;10.46;72.78
17060;BME280;8646;49.716;9.266;2023-04-02T13:11:19;100506.19;;;10.63;72.57
17060;BME280;8646;49.716;9.266;2023-04-02T13:14:23;100518.81;;;10.41;73.81
17060;BME280;8646;49.716;9.266;2023-04-02T13:17:36;100523.81;;;10.05;75.71
17060;BME280;8646;49.716;9.266;2023-04-02T13:20:40;100533.56;;;9.84;76.34
17060;BME280;8646;49.716;9.266;2023-04-02T13:23:44;100537.75;;;9.68;77.98
17060;BME280;8646;49.716;9.266;2023-04-02T13:26:48;100540.69;;;9.62;78.98
17060;BME280;8646;49.716;9.266;2023-04-02T13:29:51;100540.78;;;10.08;76.08
17060;BME280;8646;49.716;9.266;2023-04-02T13:32:54;100530.78;;;10.10;74.90
17060;BME280;8646;49.716;9.266;2023-04-02T13:35:57;100540.47;;;10.17;74.34
17060;BME280;8646;49.716;9.266;2023-04-02T13:39:03;100543.00;;;9.97;74.57
17060;BME280;8646;49.716;9.266;2023-04-02T13:42:09;100551.03;;;9.74;76.95
17060;BME280;8646;49.716;9.266;2023-04-02T13:45:23;100549.41;;;9.94;75.18
17060;BME280;8646;49.716;9.266;2023-04-02T13:48:26;100552.69;;;10.03;73.25
17060;BME280;8646;49.716;9.266;2023-04-02T13:51:34;100553.28;;;9.87;74.44
17060;BME280;8646;49.716;9.266;2023-04-02T13:54:42;100559.56;;;9.88;74.59
17060;BME280;8646;49.716;9.266;2023-04-02T13:57:47;100566.19;;;9.79;74.65
17060;BME280;8646;49.716;9.266;2023-04-02T14:00:50;100566.63;;;9.66;74.79
17060;BME280;8646;49.716;9.266;2023-04-02T14:03:53;100575.50;;;9.71;75.67
17060;BME280;8646;49.716;9.266;2023-04-02T14:10:34;100583.34;;;9.52;76.76
17060;BME280;8646;49.716;9.266;2023-04-02T14:13:52;100585.50;;;9.67;75.80
17060;BME280;8646;49.716;9.266;2023-04-02T14:17:10;100596.59;;;9.60;75.72
17060;BME280;8646;49.716;9.266;2023-04-02T14:20:27;100588.59;;;9.56;76.29
17060;BME280;8646;49.716;9.266;2023-04-02T14:23:51;100602.97;;;9.57;76.03
17060;BME280;8646;49.716;9.266;2023-04-02T14:27:09;100594.00;;;9.56;75.20
17060;BME280;8646;49.716;9.266;2023-04-02T14:30:20;100612.16;;;9.25;77.01
17060;BME280;8646;49.716;9.266;2023-04-02T14:33:32;100617.16;;;9.37;75.87
17060;BME280;8646;49.716;9.266;2023-04-02T14:36:44;100611.25;;;9.52;74.59
17060;BME280;8646;49.716;9.266;2023-04-02T14:39:58;100622.25;;;9.46;74.17
17060;BME280;8646;49.716;9.266;2023-04-02T14:43:09;100635.13;;;9.38;73.59
17060;BME280;8646;49.716;9.266;2023-04-02T14:46:13;100628.06;;;9.34;73.96
17060;BME280;8646;49.716;9.266;2023-04-02T14:49:23;100633.47;;;9.34;73.53
17060;BME280;8646;49.716;9.266;2023-04-02T14:52:28;100636.56;;;9.22;73.42
17060;BME280;8646;49.716;9.266;2023-04-02T14:55:35;100642.25;;;9.13;72.74
17060;BME280;8646;49.716;9.266;2023-04-02T14:58:42;100644.91;;;9.14;73.26
17060;BME280;8646;49.716;9.266;2023-04-02T15:01:55;100641.72;;;9.30;73.49
17060;BME280;8646;49.716;9.266;2023-04-02T15:05:02;100650.16;;;9.19;73.03
17060;BME280;8646;49.716;9.266;2023-04-02T15:08:11;100645.81;;;9.41;72.04
17060;BME280;8646;49.716;9.266;2023-04-02T15:11:19;100648.34;;;9.47;71.57
17060;BME280;8646;49.716;9.266;2023-04-02T15:14:26;100632.59;;;9.06;72.48
17060;BME280;8646;49.716;9.266;2023-04-02T15:17:31;100655.19;;;9.31;72.08
17060;BME280;8646;49.716;9.266;2023-04-02T15:20:38;100661.75;;;9.23;72.74
17060;BME280;8646;49.716;9.266;2023-04-02T15:23:50;100661.00;;;8.90;73.24
17060;BME280;8646;49.716;9.266;2023-04-02T15:27:03;100673.72;;;9.14;73.61
17060;BME280;8646;49.716;9.266;2023-04-02T15:30:28;100676.00;;;9.28;71.51
17060;BME280;8646;49.716;9.266;2023-04-02T15:33:41;100681.38;;;9.00;71.44
17060;BME280;8646;49.716;9.266;2023-04-02T15:36:52;100686.63;;;8.75;73.29
17060;BME280;8646;49.716;9.266;2023-04-02T15:40:15;100691.13;;;9.04;70.80
17060;BME280;8646;49.716;9.266;2023-04-02T15:43:26;100699.47;;;8.96;70.80
17060;BME280;8646;49.716;9.266;2023-04-02T15:46:40;100705.34;;;8.81;70.51
17060;BME280;8646;49.716;9.266;2023-04-02T15:49:49;100718.97;;;8.44;73.42
17060;BME280;8646;49.716;9.266;2023-04-02T15:53:00;100717.19;;;8.75;71.25
17060;BME280;8646;49.716;9.266;2023-04-02T15:56:19;100721.78;;;8.41;73.35
17060;BME280;8646;49.716;9.266;2023-04-02T15:59:37;100729.44;;;8.56;72.43
17060;BME280;8646;49.716;9.266;2023-04-02T16:06:19;100726.44;;;8.67;70.31
17060;BME280;8646;49.716;9.266;2023-04-02T16:09:28;100741.38;;;8.48;70.85
17060;BME280;8646;49.716;9.266;2023-04-02T16:12:37;100748.69;;;8.09;72.91
17060;BME280;8646;49.716;9.266;2023-04-02T16:15:43;100760.53;;;8.37;71.29
17060;BME280;8646;49.716;9.266;2023-04-02T16:18:54;100763.56;;;8.23;71.86
17060;BME280;8646;49.716;9.266;2023-04-02T16:22:02;100755.16;;;8.35;70.29
17060;BME280;8646;49.716;9.266;2023-04-02T16:25:13;100771.69;;;8.22;71.01
17060;BME280;8646;49.716;9.266;2023-04-02T16:28:23;100778.09;;;8.18;71.04
17060;BME280;8646;49.716;9.266;2023-04-02T16:31:33;100786.25;;;8.15;70.87
17060;BME280;8646;49.716;9.266;2023-04-02T16:34:46;100788.69;;;8.25;69.10
17060;BME280;8646;49.716;9.266;2023-04-02T16:37:55;100797.56;;;7.93;70.49
17060;BME280;8646;49.716;9.266;2023-04-02T16:41:07;100792.09;;;7.96;69.01
17060;BME280;8646;49.716;9.266;2023-04-02T16:44:22;100809.78;;;8.08;67.89
17060;BME280;8646;49.716;9.266;2023-04-02T16:47:46;100805.69;;;7.92;67.92
17060;BME280;8646;49.716;9.266;2023-04-02T16:51:00;100815.94;;;7.76;68.72
17060;BME280;8646;49.716;9.266;2023-04-02T16:54:10;100819.41;;;7.81;67.87
17060;BME280;8646;49.716;9.266;2023-04-02T16:57:22;100821.41;;;7.73;67.09
17060;BME280;8646;49.716;9.266;2023-04-02T17:00:34;100837.16;;;7.53;68.69
17060;BME280;8646;49.716;9.266;2023-04-02T17:03:53;100847.41;;;7.34;69.46
17060;BME280;8646;49.716;9.266;2023-04-02T17:07:08;100840.34;;;7.70;65.60
17060;BME280;8646;49.716;9.266;2023-04-02T17:10:22;100851.28;;;7.62;64.25
17060;BME280;8646;49.716;9.266;2023-04-02T17:13:28;100861.00;;;7.30;66.66